Time;durP1;ratioP1;P1;durP2;ratioP2;P2;SDS_P1;SDS_P2;PMS_P1;PMS_P2;Temp;Humidity;BMP_temperature;BMP_pressure;BME280_temperature;BME280_humidity;BME280_pressure;Samples;Min_cycle;Max_cycle;Signal;HPM_P1;HPM_P2
2023/08/16 00:00:19;;;;;;;16.73;16.13;;;21.70;99.90;;;;;;5051603;28;20653;-66
2023/08/16 00:02:48;;;;;;;17.85;17.20;;;21.70;99.90;;;;;;5052529;28;20243;-67
2023/08/16 00:05:15;;;;;;;19.73;18.95;;;21.60;99.90;;;;;;5053026;28;20210;-66
2023/08/16 00:07:42;;;;;;;17.10;16.52;;;21.60;99.90;;;;;;5052506;28;20211;-67
2023/08/16 00:10:11;;;;;;;16.45;15.88;;;21.50;99.90;;;;;;5052089;28;20224;-66
2023/08/16 00:12:38;;;;;;;17.63;17.02;;;21.60;99.90;;;;;;5052763;28;20204;-66
2023/08/16 00:15:06;;;;;;;15.30;14.80;;;21.40;99.90;;;;;;5053115;28;20208;-67
2023/08/16 00:17:33;;;;;;;15.07;14.55;;;21.40;99.90;;;;;;5052600;28;20207;-67
2023/08/16 00:20:03;;;;;;;14.10;13.60;;;21.40;99.90;;;;;;5051102;28;20242;-70
2023/08/16 00:22:29;;;;;;;20.92;20.15;;;21.40;99.90;;;;;;5052377;28;20204;-66
2023/08/16 00:24:56;;;;;;;21.35;20.58;;;21.40;99.90;;;;;;5052615;28;20208;-66
2023/08/16 00:27:23;;;;;;;16.15;15.55;;;21.30;99.90;;;;;;5052194;28;20204;-67
2023/08/16 00:29:50;;;;;;;16.33;15.73;;;21.30;99.90;;;;;;5050905;28;20344;-67
2023/08/16 00:32:17;;;;;;;19.25;18.55;;;21.20;99.90;;;;;;5053594;28;20204;-67
2023/08/16 00:34:43;;;;;;;16.60;16.05;;;21.20;99.90;;;;;;5053709;28;20204;-66
2023/08/16 00:37:12;;;;;;;16.10;15.50;;;21.20;99.90;;;;;;5053547;28;20211;-66
2023/08/16 00:39:39;;;;;;;14.23;13.68;;;21.30;99.90;;;;;;5052934;28;20239;-66
2023/08/16 00:42:06;;;;;;;14.90;14.40;;;21.20;99.90;;;;;;5053296;28;20208;-67
2023/08/16 00:44:34;;;;;;;13.13;12.65;;;21.30;99.90;;;;;;5053460;28;20307;-66
2023/08/16 00:47:01;;;;;;;13.43;12.98;;;21.30;99.90;;;;;;5052229;28;20575;-66
2023/08/16 00:49:28;;;;;;;14.68;14.18;;;21.30;99.90;;;;;;5051511;28;20593;-65
2023/08/16 00:51:55;;;;;;;15.53;15.03;;;21.30;99.90;;;;;;5052734;28;20204;-66
2023/08/16 00:54:23;;;;;;;15.40;14.83;;;21.30;99.90;;;;;;5052213;28;20257;-65
2023/08/16 00:56:50;;;;;;;14.38;13.88;;;21.30;99.90;;;;;;5051607;28;20426;-65
2023/08/16 00:59:17;;;;;;;16.13;15.57;;;21.20;99.90;;;;;;5051056;28;20228;-67
2023/08/16 01:01:45;;;;;;;15.73;15.13;;;21.20;99.90;;;;;;5052190;28;20690;-66
2023/08/16 01:04:12;;;;;;;15.90;15.35;;;21.20;99.90;;;;;;5051704;28;20679;-68
2023/08/16 01:06:39;;;;;;;15.70;15.15;;;21.30;99.90;;;;;;5051771;28;20214;-66
2023/08/16 01:09:07;;;;;;;16.92;16.33;;;21.30;99.90;;;;;;5051198;28;20224;-66
2023/08/16 01:11:40;;;;;;;14.85;14.35;;;21.20;99.90;;;;;;5051733;28;20206;-68
2023/08/16 01:14:10;;;;;;;19.50;18.80;;;21.20;99.90;;;;;;5051543;28;20219;-65
2023/08/16 01:16:39;;;;;;;15.27;14.77;;;21.20;99.90;;;;;;5054908;28;20208;-66
2023/08/16 01:19:11;;;;;;;16.05;15.50;;;21.20;99.90;;;;;;5064400;28;20801;-67
2023/08/16 01:21:47;;;;;;;17.13;16.42;;;21.20;99.90;;;;;;5054131;28;20581;-68
2023/08/16 01:24:22;;;;;;;20.00;19.30;;;21.20;99.90;;;;;;5058930;28;20208;-68
2023/08/16 01:26:52;;;;;;;16.75;16.17;;;21.10;99.90;;;;;;5056038;28;20188;-67
2023/08/16 01:29:20;;;;;;;16.77;16.20;;;21.00;99.90;;;;;;5054288;28;20748;-67
2023/08/16 01:31:47;;;;;;;16.00;15.45;;;21.00;99.90;;;;;;5052846;28;20208;-66
2023/08/16 01:34:14;;;;;;;16.88;16.27;;;21.00;99.90;;;;;;5049233;28;20208;-66
2023/08/16 01:36:41;;;;;;;15.35;14.80;;;21.00;99.90;;;;;;5052129;28;20618;-67
2023/08/16 01:39:08;;;;;;;16.80;16.20;;;21.00;99.90;;;;;;5050418;28;20228;-67
2023/08/16 01:41:45;;;;;;;15.43;14.93;;;20.90;99.90;;;;;;5053304;28;20208;-66
2023/08/16 01:44:14;;;;;;;16.45;15.85;;;20.90;99.90;;;;;;5052207;28;20210;-67
2023/08/16 01:46:42;;;;;;;16.52;15.95;;;20.90;99.90;;;;;;5051045;28;20605;-68
2023/08/16 01:49:11;;;;;;;15.20;14.70;;;20.90;99.90;;;;;;5050090;28;20231;-67
2023/08/16 01:51:39;;;;;;;16.57;15.97;;;20.90;99.90;;;;;;5050734;28;20232;-65
2023/08/16 01:54:06;;;;;;;15.70;15.13;;;21.00;99.90;;;;;;5050592;28;20210;-67
2023/08/16 01:56:33;;;;;;;21.40;20.63;;;20.90;99.90;;;;;;5051043;28;20287;-66
2023/08/16 01:59:00;;;;;;;39.17;37.63;;;20.90;99.90;;;;;;5050603;28;20728;-66
2023/08/16 02:01:28;;;;;;;15.10;14.55;;;20.80;99.90;;;;;;5049828;28;20674;-69
2023/08/16 02:03:55;;;;;;;15.82;15.30;;;20.80;99.90;;;;;;5051032;28;20206;-68
2023/08/16 02:06:22;;;;;;;14.30;13.80;;;20.80;99.90;;;;;;5049122;28;20633;-68
2023/08/16 02:08:49;;;;;;;15.13;14.63;;;20.80;99.90;;;;;;5050367;28;20232;-68
2023/08/16 02:11:16;;;;;;;13.88;13.40;;;20.80;99.90;;;;;;5049709;28;20740;-66
2023/08/16 02:13:43;;;;;;;15.15;14.65;;;20.90;99.90;;;;;;5050192;28;20211;-67
2023/08/16 02:16:10;;;;;;;15.38;14.85;;;20.90;99.90;;;;;;5050432;28;20409;-68
2023/08/16 02:18:38;;;;;;;18.55;17.85;;;20.80;99.90;;;;;;5050188;28;20583;-68
2023/08/16 02:21:05;;;;;;;36.08;34.38;;;20.70;99.90;;;;;;5050096;28;20465;-66
2023/08/16 02:23:31;;;;;;;29.52;28.48;;;20.70;99.90;;;;;;5052000;28;20207;-66
2023/08/16 02:25:58;;;;;;;29.02;27.98;;;20.70;99.90;;;;;;5051219;28;20208;-67
2023/08/16 02:28:25;;;;;;;18.38;17.77;;;20.80;99.90;;;;;;5050087;28;20218;-68
2023/08/16 02:30:52;;;;;;;59.65;56.92;;;20.90;99.90;;;;;;5077631;22;20312;-65
2023/08/16 02:33:19;;;;;;;37.47;36.10;;;20.90;99.90;;;;;;5069175;28;20229;-65
2023/08/16 02:35:47;;;;;;;50.47;48.13;;;20.90;99.90;;;;;;5070113;28;20560;-65
2023/08/16 02:38:14;;;;;;;33.40;32.22;;;20.90;99.90;;;;;;5070199;28;20294;-65
2023/08/16 02:40:41;;;;;;;21.73;20.95;;;20.80;99.90;;;;;;5069564;28;20596;-65
2023/08/16 02:43:08;;;;;;;21.92;21.13;;;20.80;99.90;;;;;;5069687;28;20293;-66
2023/08/16 02:45:36;;;;;;;19.35;18.67;;;20.90;99.90;;;;;;5071382;28;20213;-65
2023/08/16 02:48:03;;;;;;;17.63;17.02;;;20.80;99.90;;;;;;5073191;28;20203;-67
2023/08/16 02:50:30;;;;;;;17.02;16.42;;;20.90;99.90;;;;;;5069383;28;20226;-64
2023/08/16 02:52:58;;;;;;;17.23;16.63;;;21.00;99.90;;;;;;5069892;28;20234;-66
2023/08/16 02:55:25;;;;;;;19.30;18.63;;;21.10;99.90;;;;;;5070739;28;20200;-65
2023/08/16 02:57:53;;;;;;;18.27;17.67;;;21.10;99.90;;;;;;5070575;28;20329;-66
2023/08/16 03:00:20;;;;;;;17.58;16.98;;;21.30;99.90;;;;;;5069122;28;20577;-65
2023/08/16 03:02:47;;;;;;;16.17;15.60;;;21.20;99.90;;;;;;5070083;28;20215;-65
2023/08/16 03:05:13;;;;;;;18.35;17.73;;;21.40;99.90;;;;;;5070185;28;20654;-66
2023/08/16 03:07:40;;;;;;;16.35;15.75;;;21.40;99.90;;;;;;5070151;28;20199;-65
2023/08/16 03:10:10;;;;;;;19.15;18.48;;;21.40;99.90;;;;;;5069381;28;20592;-65
2023/08/16 03:12:36;;;;;;;16.85;16.25;;;21.30;99.90;;;;;;5070082;28;20207;-64
2023/08/16 03:15:03;;;;;;;16.77;16.17;;;21.20;99.90;;;;;;5069903;28;20725;-63
2023/08/16 03:17:30;;;;;;;18.10;17.38;;;21.10;99.90;;;;;;5069333;28;20207;-63
2023/08/16 03:19:57;;;;;;;20.73;20.00;;;21.00;99.90;;;;;;5068336;28;20466;-65
2023/08/16 03:22:24;;;;;;;42.22;40.50;;;21.00;99.90;;;;;;5070459;28;20211;-66
2023/08/16 03:24:50;;;;;;;15.45;14.95;;;20.90;99.90;;;;;;5069954;28;20233;-65
2023/08/16 03:27:19;;;;;;;24.20;23.20;;;20.90;99.90;;;;;;5069706;28;20209;-63
2023/08/16 03:29:46;;;;;;;17.80;17.17;;;20.90;99.90;;;;;;5068853;28;20638;-64
2023/08/16 03:32:12;;;;;;;18.08;17.42;;;20.90;99.90;;;;;;5069036;28;20235;-65
2023/08/16 03:34:39;;;;;;;74.30;69.05;;;20.90;99.90;;;;;;5069785;28;20207;-63
2023/08/16 03:37:06;;;;;;;31.38;30.13;;;20.90;99.90;;;;;;5069116;28;20302;-63
2023/08/16 03:39:33;;;;;;;30.65;29.30;;;20.90;99.90;;;;;;5068782;28;20701;-65
2023/08/16 03:42:00;;;;;;;28.60;27.55;;;20.80;99.90;;;;;;5069070;28;20284;-66
2023/08/16 03:44:28;;;;;;;31.42;30.15;;;20.90;99.90;;;;;;5068431;28;20203;-66
2023/08/16 03:46:56;;;;;;;20.63;19.92;;;20.90;99.90;;;;;;5072122;28;20210;-66
2023/08/16 03:49:23;;;;;;;18.50;17.83;;;20.90;99.90;;;;;;5070311;28;20227;-66
2023/08/16 03:51:51;;;;;;;21.20;20.40;;;21.00;99.90;;;;;;5071557;28;20200;-65
2023/08/16 03:54:18;;;;;;;23.55;22.75;;;20.90;99.90;;;;;;5071740;28;20207;-64
2023/08/16 03:56:44;;;;;;;22.05;21.27;;;21.00;99.90;;;;;;5073279;28;20677;-65
2023/08/16 03:59:11;;;;;;;36.03;34.63;;;21.10;99.90;;;;;;5071559;28;20253;-66
2023/08/16 04:01:39;;;;;;;20.73;19.90;;;21.10;99.90;;;;;;5072324;28;20764;-65
2023/08/16 04:04:06;;;;;;;61.53;58.05;;;21.20;99.90;;;;;;5072256;28;20217;-65
2023/08/16 04:06:33;;;;;;;25.67;24.48;;;21.20;99.90;;;;;;5072594;28;20665;-65
2023/08/16 04:09:00;;;;;;;17.50;16.88;;;21.30;99.90;;;;;;5072060;28;20207;-62
2023/08/16 04:11:27;;;;;;;26.30;25.33;;;21.20;99.90;;;;;;5071543;28;20209;-63
2023/08/16 04:13:53;;;;;;;17.42;16.85;;;21.30;99.90;;;;;;5071724;28;20215;-65
2023/08/16 04:16:20;;;;;;;24.85;23.73;;;21.30;99.90;;;;;;5071988;28;20290;-64
2023/08/16 04:18:50;;;;;;;16.88;16.30;;;21.30;99.90;;;;;;5072507;28;20207;-65
2023/08/16 04:21:17;;;;;;;106.23;98.77;;;21.30;99.90;;;;;;5071381;28;20227;-65
2023/08/16 04:23:43;;;;;;;16.33;15.75;;;21.30;99.90;;;;;;5071933;28;20200;-64
2023/08/16 04:26:10;;;;;;;16.38;15.80;;;21.30;99.90;;;;;;5071977;28;20312;-65
2023/08/16 04:28:37;;;;;;;37.88;35.83;;;21.30;99.90;;;;;;5071682;28;20199;-64
2023/08/16 04:31:04;;;;;;;22.05;21.27;;;21.40;99.90;;;;;;5070966;28;20226;-65
2023/08/16 04:33:31;;;;;;;23.50;22.70;;;21.40;99.90;;;;;;5071675;28;20206;-63
2023/08/16 04:35:59;;;;;;;19.08;18.38;;;21.40;99.90;;;;;;5071926;28;20203;-66
2023/08/16 04:38:26;;;;;;;14.57;14.07;;;21.50;99.90;;;;;;5071721;28;20680;-65
2023/08/16 04:40:53;;;;;;;48.97;46.40;;;21.50;99.90;;;;;;5071343;28;20478;-65
2023/08/16 04:43:20;;;;;;;14.30;13.80;;;21.40;99.90;;;;;;5072176;28;20207;-65
2023/08/16 04:45:47;;;;;;;11.50;11.10;;;21.50;99.90;;;;;;5072261;28;20243;-66
2023/08/16 04:48:14;;;;;;;12.15;11.75;;;21.50;99.90;;;;;;5070892;28;20203;-65
2023/08/16 04:50:41;;;;;;;12.32;11.88;;;21.50;99.90;;;;;;5073111;28;20257;-66
2023/08/16 04:53:09;;;;;;;11.73;11.32;;;21.60;99.90;;;;;;5073379;28;20199;-66
2023/08/16 04:55:36;;;;;;;11.38;10.98;;;21.90;99.90;;;;;;5073946;28;20214;-64
2023/08/16 04:58:03;;;;;;;11.80;11.40;;;21.70;99.90;;;;;;5071918;28;20206;-66
2023/08/16 05:00:29;;;;;;;11.23;10.82;;;21.70;99.90;;;;;;5070835;28;20416;-66
2023/08/16 05:02:56;;;;;;;11.07;10.68;;;21.70;99.90;;;;;;5071975;28;20558;-67
2023/08/16 05:05:23;;;;;;;11.90;11.50;;;21.70;99.90;;;;;;5071315;28;20207;-66
2023/08/16 05:07:50;;;;;;;12.27;11.88;;;21.70;99.90;;;;;;5070897;28;20215;-65
2023/08/16 05:10:18;;;;;;;11.82;11.43;;;21.70;99.90;;;;;;5071034;28;20682;-65
2023/08/16 05:12:45;;;;;;;12.43;11.95;;;21.80;99.90;;;;;;5073847;28;20213;-66
2023/08/16 05:15:12;;;;;;;12.55;12.15;;;21.80;99.90;;;;;;5073330;28;20504;-65
2023/08/16 05:17:39;;;;;;;12.63;12.23;;;22.00;99.90;;;;;;5071559;28;20217;-66
2023/08/16 05:20:08;;;;;;;11.45;11.05;;;22.00;99.90;;;;;;5070240;28;20307;-65
2023/08/16 05:22:34;;;;;;;13.57;13.07;;;22.00;99.90;;;;;;5070773;28;20218;-65
2023/08/16 05:25:01;;;;;;;12.38;11.98;;;22.00;99.90;;;;;;5071190;28;20214;-65
2023/08/16 05:27:30;;;;;;;13.10;12.60;;;22.10;99.90;;;;;;5070503;28;20217;-65
2023/08/16 05:29:57;;;;;;;12.68;12.27;;;22.10;99.90;;;;;;5070594;28;20692;-66
2023/08/16 05:32:24;;;;;;;13.35;12.85;;;22.10;99.90;;;;;;5071400;28;20207;-67
2023/08/16 05:34:53;;;;;;;13.18;12.68;;;22.10;99.90;;;;;;5071797;28;20204;-65
2023/08/16 05:37:19;;;;;;;12.47;12.07;;;22.20;99.90;;;;;;5071417;28;20253;-65
2023/08/16 05:39:47;;;;;;;12.50;12.10;;;22.30;99.90;;;;;;5070904;28;20237;-65
2023/08/16 05:42:14;;;;;;;12.73;12.30;;;22.40;99.90;;;;;;5071288;28;20262;-65
2023/08/16 05:44:42;;;;;;;13.23;12.73;;;22.50;99.90;;;;;;5075677;28;20289;-66
2023/08/16 05:47:09;;;;;;;12.48;12.07;;;22.50;99.90;;;;;;5081222;28;20214;-65
2023/08/16 05:49:35;;;;;;;12.70;12.25;;;22.50;99.90;;;;;;5079379;28;20299;-65
2023/08/16 05:52:02;;;;;;;13.13;12.73;;;22.50;99.90;;;;;;5071625;28;20207;-65
2023/08/16 05:54:29;;;;;;;13.63;13.13;;;22.50;99.90;;;;;;5071313;28;20214;-64
2023/08/16 05:56:56;;;;;;;13.05;12.63;;;22.50;99.90;;;;;;5070921;28;20563;-65
2023/08/16 05:59:23;;;;;;;13.60;13.10;;;22.50;99.90;;;;;;5070483;28;20227;-65
2023/08/16 06:01:51;;;;;;;12.48;12.07;;;22.50;99.90;;;;;;5071405;28;20231;-65
2023/08/16 06:04:18;;;;;;;13.55;13.05;;;22.50;99.90;;;;;;5070754;28;20199;-66
2023/08/16 06:06:44;;;;;;;13.60;13.10;;;22.50;99.90;;;;;;5071011;28;20203;-66
2023/08/16 06:09:11;;;;;;;13.98;13.48;;;22.60;99.90;;;;;;5070207;28;20213;-64
2023/08/16 06:11:38;;;;;;;13.63;13.13;;;22.50;99.90;;;;;;5070748;28;20692;-65
2023/08/16 06:14:05;;;;;;;14.18;13.68;;;22.50;99.90;;;;;;5070140;28;20211;-65
2023/08/16 06:16:32;;;;;;;13.80;13.30;;;22.60;99.90;;;;;;5070114;28;20558;-65
2023/08/16 06:19:00;;;;;;;14.98;14.48;;;22.80;99.90;;;;;;5070774;28;20199;-67
2023/08/16 06:21:26;;;;;;;14.77;14.27;;;23.00;99.90;;;;;;5070198;28;20607;-65
2023/08/16 06:23:56;;;;;;;14.02;13.52;;;23.20;99.90;;;;;;5070375;28;20207;-66
2023/08/16 06:26:22;;;;;;;15.10;14.60;;;23.30;99.90;;;;;;5070349;28;20203;-65
2023/08/16 06:28:49;;;;;;;15.07;14.57;;;23.40;99.90;;;;;;5070523;28;20315;-66
2023/08/16 06:31:17;;;;;;;15.13;14.60;;;23.50;99.90;;;;;;5069390;28;20318;-64
2023/08/16 06:33:43;;;;;;;19.80;19.13;;;23.60;99.90;;;;;;5070330;28;20203;-66
2023/08/16 06:36:13;;;;;;;17.50;16.90;;;23.70;99.90;;;;;;5070301;28;20729;-65
2023/08/16 06:38:39;;;;;;;14.50;13.90;;;23.80;99.90;;;;;;5070446;28;20550;-65
2023/08/16 06:41:06;;;;;;;15.05;14.55;;;23.90;99.90;;;;;;5069695;28;20614;-64
2023/08/16 06:43:33;;;;;;;17.23;16.63;;;23.80;99.90;;;;;;5070624;28;20207;-66
2023/08/16 06:46:00;;;;;;;15.38;14.88;;;23.80;99.90;;;;;;5069861;28;20210;-66
2023/08/16 06:48:27;;;;;;;20.77;20.08;;;24.00;99.90;;;;;;5069644;28;20695;-66
2023/08/16 06:50:54;;;;;;;17.80;17.20;;;23.90;99.90;;;;;;5068653;28;20284;-65
2023/08/16 06:53:23;;;;;;;18.45;17.83;;;23.90;99.90;;;;;;5069054;28;20682;-66
2023/08/16 06:55:50;;;;;;;16.67;16.08;;;24.00;99.90;;;;;;5068817;28;20238;-67
2023/08/16 06:58:17;;;;;;;16.73;16.13;;;24.10;99.90;;;;;;5068545;28;20700;-64
2023/08/16 07:00:45;;;;;;;18.10;17.50;;;24.10;99.90;;;;;;5068295;28;20227;-66
2023/08/16 07:03:12;;;;;;;17.67;17.08;;;24.30;99.90;;;;;;5068774;28;20199;-66
2023/08/16 07:05:39;;;;;;;17.10;16.50;;;24.20;99.90;;;;;;5069336;28;20230;-65
2023/08/16 07:08:06;;;;;;;17.80;17.20;;;24.30;99.90;;;;;;5069398;28;20214;-65
2023/08/16 07:10:35;;;;;;;20.05;19.35;;;24.40;99.90;;;;;;5071129;28;20219;-65
2023/08/16 07:13:02;;;;;;;17.70;17.05;;;24.40;99.90;;;;;;5071072;28;20692;-65
2023/08/16 07:15:29;;;;;;;19.75;19.05;;;24.50;99.90;;;;;;5069465;28;20209;-66
2023/08/16 07:17:56;;;;;;;21.05;20.33;;;24.50;99.90;;;;;;5067900;28;20290;-66
2023/08/16 07:20:23;;;;;;;18.38;17.70;;;24.70;99.90;;;;;;5070022;28;20226;-67
2023/08/16 07:22:50;;;;;;;15.93;15.32;;;24.60;99.90;;;;;;5072954;28;20299;-65
2023/08/16 07:25:17;;;;;;;15.27;14.70;;;24.30;99.90;;;;;;5073888;28;20211;-65
2023/08/16 07:27:45;;;;;;;17.88;17.27;;;24.20;99.90;;;;;;5071189;28;20203;-68
2023/08/16 07:30:13;;;;;;;19.80;19.10;;;24.40;99.90;;;;;;5071933;28;20724;-66
2023/08/16 07:32:39;;;;;;;16.77;16.17;;;24.50;99.90;;;;;;5072954;28;20203;-64
2023/08/16 07:35:07;;;;;;;17.80;17.20;;;24.70;99.90;;;;;;5073734;28;20506;-66
2023/08/16 07:37:34;;;;;;;21.63;20.83;;;24.70;99.90;;;;;;5072590;28;20627;-65
2023/08/16 07:40:01;;;;;;;19.65;18.95;;;24.80;99.90;;;;;;5071869;28;20222;-66
2023/08/16 07:42:28;;;;;;;19.65;18.95;;;24.90;99.90;;;;;;5072737;28;20650;-65
2023/08/16 07:44:57;;;;;;;21.08;20.38;;;24.90;99.90;;;;;;5073201;28;20234;-66
2023/08/16 07:47:24;;;;;;;20.13;19.42;;;25.00;99.90;;;;;;5073088;28;20317;-64
2023/08/16 07:49:51;;;;;;;17.75;17.15;;;25.10;99.90;;;;;;5071301;28;20227;-65
2023/08/16 07:52:18;;;;;;;19.83;19.13;;;25.20;99.90;;;;;;5073773;28;20238;-66
2023/08/16 07:54:45;;;;;;;16.75;16.15;;;25.30;99.90;;;;;;5073974;28;20239;-67
2023/08/16 07:57:11;;;;;;;18.40;17.80;;;25.30;99.90;;;;;;5073668;28;20673;-67
2023/08/16 07:59:39;;;;;;;15.23;14.73;;;25.20;99.90;;;;;;5073133;28;20705;-65
2023/08/16 08:02:07;;;;;;;19.80;19.10;;;25.20;99.90;;;;;;5073932;28;21056;-65
2023/08/16 08:04:34;;;;;;;18.25;17.65;;;25.20;99.90;;;;;;5073633;28;20218;-64
2023/08/16 08:07:01;;;;;;;15.00;14.50;;;25.30;99.90;;;;;;5074073;28;20227;-66
2023/08/16 08:09:28;;;;;;;19.08;18.38;;;25.30;99.90;;;;;;5074937;28;20274;-65
2023/08/16 08:11:55;;;;;;;19.33;18.63;;;25.30;99.90;;;;;;5075875;28;20217;-65
2023/08/16 08:14:22;;;;;;;17.27;16.67;;;25.50;99.90;;;;;;5074633;28;20203;-66
2023/08/16 08:16:48;;;;;;;18.77;18.10;;;25.50;99.90;;;;;;5076163;28;20214;-66
2023/08/16 08:19:17;;;;;;;19.20;18.50;;;25.60;99.90;;;;;;5076706;28;20578;-67
2023/08/16 08:21:44;;;;;;;18.35;17.75;;;25.80;99.90;;;;;;5075864;28;20227;-66
2023/08/16 08:24:11;;;;;;;16.92;16.33;;;25.90;99.90;;;;;;5079939;28;20211;-65
2023/08/16 08:26:38;;;;;;;17.63;17.02;;;25.90;99.90;;;;;;5081131;28;20210;-66
2023/08/16 08:29:05;;;;;;;18.92;18.30;;;26.00;99.90;;;;;;5074939;28;20211;-64
2023/08/16 08:31:32;;;;;;;16.58;15.98;;;26.10;99.90;;;;;;5099137;22;20219;-66
2023/08/16 08:33:58;;;;;;;15.05;14.55;;;26.20;99.90;;;;;;5073141;28;20207;-67
2023/08/16 08:36:27;;;;;;;15.18;14.68;;;26.20;99.90;;;;;;5073701;28;20693;-68
2023/08/16 08:38:54;;;;;;;16.65;16.05;;;26.00;99.90;;;;;;5073762;28;20207;-67
2023/08/16 08:41:23;;;;;;;15.70;15.15;;;26.20;99.90;;;;;;5072142;28;20711;-68
2023/08/16 08:43:51;;;;;;;15.55;15.05;;;26.40;99.90;;;;;;5073269;28;20208;-68
2023/08/16 08:46:18;;;;;;;21.92;21.10;;;26.50;99.90;;;;;;5072997;28;20395;-66
2023/08/16 08:48:46;;;;;;;17.23;16.63;;;26.60;99.90;;;;;;5072954;28;20297;-68
2023/08/16 08:51:13;;;;;;;15.82;15.25;;;26.50;99.90;;;;;;5072185;28;20258;-69
2023/08/16 08:53:42;;;;;;;14.93;14.43;;;26.50;99.90;;;;;;5073078;28;20640;-65
2023/08/16 08:56:10;;;;;;;15.00;14.50;;;26.60;99.90;;;;;;5073662;28;20206;-66
2023/08/16 08:58:40;;;;;;;12.50;12.10;;;26.60;99.90;;;;;;5072778;28;20211;-67
2023/08/16 09:01:09;;;;;;;16.00;15.40;;;26.80;99.90;;;;;;5071405;28;20227;-67
2023/08/16 09:03:37;;;;;;;13.40;12.98;;;27.00;99.90;;;;;;5073119;28;20214;-66
2023/08/16 09:06:05;;;;;;;12.93;12.52;;;27.20;99.90;;;;;;5073980;28;20199;-67
2023/08/16 09:08:36;;;;;;;16.08;15.48;;;27.10;99.90;;;;;;5073119;28;20242;-68
2023/08/16 09:11:04;;;;;;;12.63;12.18;;;27.30;99.90;;;;;;5072394;28;20222;-66
2023/08/16 09:13:31;;;;;;;13.48;12.98;;;27.20;99.90;;;;;;5072180;28;20200;-66
2023/08/16 09:16:00;;;;;;;13.25;12.75;;;27.30;99.90;;;;;;5072580;28;20253;-67
2023/08/16 09:18:28;;;;;;;12.35;11.88;;;27.40;99.90;;;;;;5072966;28;20213;-67
2023/08/16 09:20:58;;;;;;;12.88;12.40;;;27.40;99.90;;;;;;5072833;28;20229;-67
2023/08/16 09:23:25;;;;;;;13.35;12.85;;;27.50;99.90;;;;;;5072262;28;20257;-68
2023/08/16 09:25:52;;;;;;;12.98;12.48;;;27.50;99.90;;;;;;5072169;28;20203;-68
2023/08/16 09:28:20;;;;;;;14.90;14.30;;;27.60;99.90;;;;;;5073571;28;20307;-67
2023/08/16 09:30:47;;;;;;;16.00;15.30;;;27.60;99.90;;;;;;5071556;28;20242;-67
2023/08/16 09:33:15;;;;;;;13.52;13.02;;;27.70;99.90;;;;;;5071930;28;20203;-66
2023/08/16 09:35:48;;;;;;;13.98;13.48;;;27.50;99.90;;;;;;5072150;28;20298;-68
2023/08/16 09:38:16;;;;;;;13.13;12.63;;;27.50;99.90;;;;;;5071937;28;20198;-67
2023/08/16 09:40:50;;;;;;;12.60;12.20;;;27.60;99.90;;;;;;5070033;28;20227;-65
2023/08/16 09:43:17;;;;;;;19.85;19.08;;;27.60;99.90;;;;;;5070899;28;20636;-66
2023/08/16 09:45:48;;;;;;;12.50;12.10;;;27.80;99.90;;;;;;5071068;28;20203;-66
2023/08/16 09:48:15;;;;;;;14.20;13.70;;;27.60;99.90;;;;;;5071580;28;20646;-68
2023/08/16 09:50:43;;;;;;;14.82;14.32;;;27.80;99.90;;;;;;5070444;28;20237;-66
2023/08/16 09:53:12;;;;;;;14.95;14.45;;;28.10;99.90;;;;;;5070738;28;20199;-69
2023/08/16 09:55:42;;;;;;;14.80;14.30;;;28.30;99.90;;;;;;5070518;28;20211;-67
2023/08/16 09:58:11;;;;;;;14.55;14.05;;;28.20;99.90;;;;;;5070608;28;20413;-67
2023/08/16 10:00:40;;;;;;;16.55;15.95;;;28.30;99.90;;;;;;5069763;28;20231;-66
2023/08/16 10:03:09;;;;;;;14.07;13.57;;;28.30;99.90;;;;;;5070577;28;20309;-66
2023/08/16 10:05:36;;;;;;;14.18;13.68;;;28.40;99.90;;;;;;5070486;28;20207;-65
2023/08/16 10:08:05;;;;;;;14.07;13.57;;;28.50;99.90;;;;;;5069357;28;20209;-69
2023/08/16 10:10:33;;;;;;;14.18;13.68;;;28.50;99.90;;;;;;5069400;28;20310;-68
2023/08/16 10:13:01;;;;;;;12.55;12.15;;;28.70;99.90;;;;;;5070512;28;20294;-67
2023/08/16 10:15:32;;;;;;;13.00;12.60;;;28.90;99.90;;;;;;5070539;28;20700;-67
2023/08/16 10:18:01;;;;;;;13.23;12.73;;;29.00;99.90;;;;;;5071089;28;20681;-66
2023/08/16 10:20:32;;;;;;;14.13;13.63;;;28.90;99.90;;;;;;5069285;28;20673;-66
2023/08/16 10:23:00;;;;;;;13.85;13.35;;;28.60;99.90;;;;;;5070205;28;20211;-66
2023/08/16 10:25:31;;;;;;;14.40;13.90;;;28.70;99.90;;;;;;5070023;28;20202;-68
2023/08/16 10:28:01;;;;;;;14.93;14.40;;;28.90;99.90;;;;;;5070538;28;20195;-66
2023/08/16 10:30:28;;;;;;;15.10;14.60;;;28.80;99.90;;;;;;5069427;28;20227;-68
2023/08/16 10:33:01;;;;;;;15.02;14.52;;;28.90;99.90;;;;;;5070323;28;20184;-68
2023/08/16 10:35:30;;;;;;;16.80;16.10;;;29.10;99.90;;;;;;5070745;28;20210;-69
2023/08/16 10:37:57;;;;;;;15.43;14.82;;;29.20;99.90;;;;;;5070192;28;20203;-67
2023/08/16 10:40:25;;;;;;;15.60;15.10;;;29.20;99.90;;;;;;5070010;28;20735;-66
2023/08/16 10:42:58;;;;;;;14.65;14.15;;;29.30;99.90;;;;;;5069596;28;20223;-65
2023/08/16 10:45:26;;;;;;;14.38;13.88;;;29.40;99.90;;;;;;5069745;28;20291;-67
2023/08/16 10:47:54;;;;;;;15.82;15.23;;;29.40;99.90;;;;;;5069836;28;20648;-68
2023/08/16 10:50:21;;;;;;;14.65;14.15;;;29.50;99.90;;;;;;5069188;28;20226;-66
2023/08/16 10:52:50;;;;;;;14.80;14.30;;;29.50;99.90;;;;;;5069819;28;20203;-67
2023/08/16 10:55:24;;;;;;;15.25;14.65;;;29.60;99.90;;;;;;5069942;28;20199;-67
2023/08/16 10:57:52;;;;;;;14.20;13.70;;;29.60;99.90;;;;;;5069856;28;20195;-67
2023/08/16 11:00:20;;;;;;;21.73;20.85;;;29.70;99.90;;;;;;5075627;28;20273;-64
2023/08/16 11:02:51;;;;;;;15.90;15.30;;;29.80;99.90;;;;;;5071706;28;20223;-66
2023/08/16 11:05:22;;;;;;;13.70;13.20;;;29.70;99.90;;;;;;5070541;28;20192;-68
2023/08/16 11:07:50;;;;;;;17.73;17.00;;;29.70;99.90;;;;;;5075413;28;20664;-66
2023/08/16 11:10:17;;;;;;;12.00;11.60;;;29.70;99.90;;;;;;5069695;28;20708;-67
2023/08/16 11:12:43;;;;;;;14.30;13.80;;;29.80;99.90;;;;;;5076735;28;20204;-67
2023/08/16 11:15:10;;;;;;;13.43;12.93;;;29.90;99.90;;;;;;5071121;28;20203;-69
2023/08/16 11:17:42;;;;;;;14.77;14.23;;;29.90;99.90;;;;;;5070304;28;20294;-67
2023/08/16 11:20:15;;;;;;;13.98;13.48;;;30.00;99.90;;;;;;5069762;28;20231;-68
2023/08/16 11:22:43;;;;;;;14.02;13.52;;;30.00;99.90;;;;;;5070009;28;20208;-68
2023/08/16 11:25:11;;;;;;;14.93;14.32;;;30.00;99.90;;;;;;5069588;28;20677;-66
2023/08/16 11:27:38;;;;;;;14.05;13.55;;;30.00;99.90;;;;;;5069456;28;20692;-65
2023/08/16 11:30:08;;;;;;;14.57;14.07;;;30.00;99.90;;;;;;5068688;28;20597;-67
2023/08/16 11:32:37;;;;;;;52.33;49.33;;;30.00;99.90;;;;;;5070256;28;20194;-68
2023/08/16 11:35:08;;;;;;;14.95;14.45;;;29.80;99.90;;;;;;5069519;28;20203;-66
2023/08/16 11:37:35;;;;;;;15.27;14.77;;;29.80;99.90;;;;;;5069436;28;20203;-67
2023/08/16 11:40:04;;;;;;;14.50;13.90;;;29.90;99.90;;;;;;5069438;28;20203;-67
2023/08/16 11:42:32;;;;;;;15.38;14.82;;;30.00;99.90;;;;;;5069764;28;20310;-68
2023/08/16 11:44:59;;;;;;;14.70;14.10;;;30.20;99.90;;;;;;5071232;28;20199;-68
2023/08/16 11:47:26;;;;;;;15.63;15.05;;;30.20;99.90;;;;;;5070820;28;20242;-67
2023/08/16 11:49:53;;;;;;;15.88;15.35;;;30.20;99.90;;;;;;5069465;28;20229;-69
2023/08/16 11:52:22;;;;;;;14.13;13.63;;;30.30;99.90;;;;;;5070335;28;20667;-69
2023/08/16 11:55:00;;;;;;;14.57;14.07;;;30.30;99.90;;;;;;5069028;28;20211;-67
2023/08/16 11:57:27;;;;;;;14.32;13.82;;;30.40;99.90;;;;;;5069826;28;20290;-68
2023/08/16 11:59:56;;;;;;;17.33;16.65;;;30.40;99.90;;;;;;5068955;28;20751;-67
2023/08/16 12:02:24;;;;;;;11.05;10.65;;;30.50;99.90;;;;;;5069025;28;20677;-67
2023/08/16 12:04:52;;;;;;;11.90;11.50;;;30.60;99.90;;;;;;5069261;28;20207;-66
2023/08/16 12:07:19;;;;;;;33.67;31.90;;;30.70;99.90;;;;;;5069382;28;20203;-67
2023/08/16 12:09:48;;;;;;;14.40;13.90;;;30.80;99.90;;;;;;5068717;28;20207;-68
2023/08/16 12:12:14;;;;;;;11.73;11.32;;;30.70;99.90;;;;;;5071793;28;20704;-66
2023/08/16 12:14:41;;;;;;;10.68;10.27;;;30.70;99.90;;;;;;5069926;28;20204;-67
2023/08/16 12:17:10;;;;;;;16.38;15.68;;;30.70;99.90;;;;;;5072799;28;20203;-68
2023/08/16 12:19:37;;;;;;;11.30;10.90;;;30.90;99.90;;;;;;5071811;28;20572;-67
2023/08/16 12:22:04;;;;;;;81.45;75.40;;;30.90;99.90;;;;;;5071433;28;20219;-67
2023/08/16 12:24:31;;;;;;;11.70;11.20;;;31.00;99.90;;;;;;5073181;28;20214;-66
2023/08/16 12:26:58;;;;;;;10.80;10.40;;;30.90;99.90;;;;;;5073575;28;20260;-67